sensor_id;sensor_type;location;lat;lon;timestamp;P1;durP1;ratioP1;P2;durP2;ratioP2
14100;SDS011;7127;49.372;8.166;2023-06-26T00:02:12;2.28;;;2.08;;
14100;SDS011;7127;49.372;8.166;2023-06-26T00:04:38;2.35;;;2.15;;
14100;SDS011;7127;49.372;8.166;2023-06-26T00:07:05;2.17;;;2.08;;
14100;SDS011;7127;49.372;8.166;2023-06-26T00:09:32;2.50;;;2.30;;
14100;SDS011;7127;49.372;8.166;2023-06-26T00:11:59;2.70;;;2.50;;
14100;SDS011;7127;49.372;8.166;2023-06-26T00:14:27;2.80;;;2.55;;
14100;SDS011;7127;49.372;8.166;2023-06-26T00:16:54;2.65;;;2.45;;
14100;SDS011;7127;49.372;8.166;2023-06-26T00:19:21;2.57;;;2.37;;
14100;SDS011;7127;49.372;8.166;2023-06-26T00:21:48;2.30;;;2.10;;
14100;SDS011;7127;49.372;8.166;2023-06-26T00:24:15;2.22;;;2.03;;
14100;SDS011;7127;49.372;8.166;2023-06-26T00:26:42;2.50;;;2.30;;
14100;SDS011;7127;49.372;8.166;2023-06-26T00:29:09;2.63;;;2.30;;
14100;SDS011;7127;49.372;8.166;2023-06-26T00:31:37;2.40;;;2.15;;
14100;SDS011;7127;49.372;8.166;2023-06-26T00:34:05;2.17;;;2.03;;
14100;SDS011;7127;49.372;8.166;2023-06-26T00:36:32;3.22;;;2.40;;
14100;SDS011;7127;49.372;8.166;2023-06-26T00:38:58;2.40;;;2.20;;
14100;SDS011;7127;49.372;8.166;2023-06-26T00:41:26;2.35;;;2.15;;
14100;SDS011;7127;49.372;8.166;2023-06-26T00:43:52;2.58;;;2.38;;
14100;SDS011;7127;49.372;8.166;2023-06-26T00:46:19;2.80;;;2.17;;
14100;SDS011;7127;49.372;8.166;2023-06-26T00:48:48;2.42;;;2.22;;
14100;SDS011;7127;49.372;8.166;2023-06-26T00:51:15;2.42;;;2.22;;
14100;SDS011;7127;49.372;8.166;2023-06-26T00:53:42;2.30;;;2.10;;
14100;SDS011;7127;49.372;8.166;2023-06-26T00:56:09;2.40;;;2.20;;
14100;SDS011;7127;49.372;8.166;2023-06-26T00:58:36;2.58;;;2.38;;
14100;SDS011;7127;49.372;8.166;2023-06-26T01:01:03;2.40;;;2.20;;
14100;SDS011;7127;49.372;8.166;2023-06-26T01:03:31;2.50;;;2.30;;
14100;SDS011;7127;49.372;8.166;2023-06-26T01:05:59;2.47;;;2.28;;
14100;SDS011;7127;49.372;8.166;2023-06-26T01:08:27;2.80;;;2.30;;
14100;SDS011;7127;49.372;8.166;2023-06-26T01:10:54;2.17;;;2.00;;
14100;SDS011;7127;49.372;8.166;2023-06-26T01:13:21;2.50;;;2.30;;
14100;SDS011;7127;49.372;8.166;2023-06-26T01:15:50;2.50;;;2.30;;
14100;SDS011;7127;49.372;8.166;2023-06-26T01:18:18;2.20;;;2.00;;
14100;SDS011;7127;49.372;8.166;2023-06-26T01:20:45;2.53;;;2.33;;
14100;SDS011;7127;49.372;8.166;2023-06-26T01:23:16;2.15;;;1.95;;
14100;SDS011;7127;49.372;8.166;2023-06-26T01:28:38;2.23;;;2.03;;
14100;SDS011;7127;49.372;8.166;2023-06-26T01:31:07;2.30;;;2.10;;
14100;SDS011;7127;49.372;8.166;2023-06-26T01:33:34;2.40;;;2.20;;
14100;SDS011;7127;49.372;8.166;2023-06-26T01:36:02;2.83;;;2.63;;
14100;SDS011;7127;49.372;8.166;2023-06-26T01:38:29;2.25;;;2.05;;
14100;SDS011;7127;49.372;8.166;2023-06-26T01:40:56;2.30;;;2.10;;
14100;SDS011;7127;49.372;8.166;2023-06-26T01:43:26;2.47;;;2.28;;
14100;SDS011;7127;49.372;8.166;2023-06-26T01:45:58;2.30;;;2.10;;
14100;SDS011;7127;49.372;8.166;2023-06-26T01:48:30;2.40;;;2.20;;
14100;SDS011;7127;49.372;8.166;2023-06-26T01:51:03;2.40;;;2.20;;
14100;SDS011;7127;49.372;8.166;2023-06-26T01:53:32;2.40;;;2.07;;
14100;SDS011;7127;49.372;8.166;2023-06-26T01:56:03;2.20;;;2.00;;
14100;SDS011;7127;49.372;8.166;2023-06-26T01:58:36;3.53;;;2.10;;
14100;SDS011;7127;49.372;8.166;2023-06-26T02:01:05;2.27;;;2.07;;
14100;SDS011;7127;49.372;8.166;2023-06-26T02:03:32;2.42;;;1.98;;
14100;SDS011;7127;49.372;8.166;2023-06-26T02:05:59;2.35;;;2.10;;
14100;SDS011;7127;49.372;8.166;2023-06-26T02:08:26;2.47;;;2.27;;
14100;SDS011;7127;49.372;8.166;2023-06-26T02:10:53;2.53;;;2.33;;
14100;SDS011;7127;49.372;8.166;2023-06-26T02:13:19;2.70;;;2.50;;
14100;SDS011;7127;49.372;8.166;2023-06-26T02:15:48;2.43;;;2.23;;
14100;SDS011;7127;49.372;8.166;2023-06-26T02:18:15;2.70;;;2.50;;
14100;SDS011;7127;49.372;8.166;2023-06-26T02:20:42;2.90;;;2.70;;
14100;SDS011;7127;49.372;8.166;2023-06-26T02:23:09;2.90;;;2.30;;
14100;SDS011;7127;49.372;8.166;2023-06-26T02:25:37;2.93;;;2.57;;
14100;SDS011;7127;49.372;8.166;2023-06-26T02:28:04;2.57;;;2.37;;
14100;SDS011;7127;49.372;8.166;2023-06-26T02:30:31;2.50;;;2.30;;
14100;SDS011;7127;49.372;8.166;2023-06-26T02:32:59;2.30;;;2.10;;
14100;SDS011;7127;49.372;8.166;2023-06-26T02:35:26;2.90;;;2.33;;
14100;SDS011;7127;49.372;8.166;2023-06-26T02:37:53;2.80;;;2.60;;
14100;SDS011;7127;49.372;8.166;2023-06-26T02:40:20;3.00;;;2.43;;
14100;SDS011;7127;49.372;8.166;2023-06-26T02:42:47;2.53;;;2.33;;
14100;SDS011;7127;49.372;8.166;2023-06-26T02:45:14;2.20;;;2.00;;
14100;SDS011;7127;49.372;8.166;2023-06-26T02:47:41;2.37;;;2.17;;
14100;SDS011;7127;49.372;8.166;2023-06-26T02:50:09;2.50;;;2.30;;
14100;SDS011;7127;49.372;8.166;2023-06-26T02:52:36;2.47;;;2.13;;
14100;SDS011;7127;49.372;8.166;2023-06-26T02:55:03;2.60;;;2.40;;
14100;SDS011;7127;49.372;8.166;2023-06-26T02:57:31;2.73;;;2.53;;
14100;SDS011;7127;49.372;8.166;2023-06-26T02:59:58;2.57;;;2.37;;
14100;SDS011;7127;49.372;8.166;2023-06-26T03:02:25;2.43;;;2.23;;
14100;SDS011;7127;49.372;8.166;2023-06-26T03:04:51;2.80;;;2.50;;
14100;SDS011;7127;49.372;8.166;2023-06-26T03:07:20;2.60;;;2.40;;
14100;SDS011;7127;49.372;8.166;2023-06-26T03:09:46;3.23;;;2.70;;
14100;SDS011;7127;49.372;8.166;2023-06-26T03:12:13;3.20;;;2.90;;
14100;SDS011;7127;49.372;8.166;2023-06-26T03:14:40;3.03;;;2.40;;
14100;SDS011;7127;49.372;8.166;2023-06-26T03:17:07;2.73;;;2.53;;
14100;SDS011;7127;49.372;8.166;2023-06-26T03:19:34;2.70;;;2.50;;
14100;SDS011;7127;49.372;8.166;2023-06-26T03:22:01;2.67;;;2.47;;
14100;SDS011;7127;49.372;8.166;2023-06-26T03:24:30;2.80;;;2.60;;
14100;SDS011;7127;49.372;8.166;2023-06-26T03:26:56;3.00;;;2.70;;
14100;SDS011;7127;49.372;8.166;2023-06-26T03:29:23;3.10;;;2.80;;
14100;SDS011;7127;49.372;8.166;2023-06-26T03:31:50;3.20;;;2.43;;
14100;SDS011;7127;49.372;8.166;2023-06-26T03:34:17;3.00;;;2.70;;
14100;SDS011;7127;49.372;8.166;2023-06-26T03:36:43;2.97;;;2.67;;
14100;SDS011;7127;49.372;8.166;2023-06-26T03:39:10;2.97;;;2.70;;
14100;SDS011;7127;49.372;8.166;2023-06-26T03:41:38;2.77;;;2.53;;
14100;SDS011;7127;49.372;8.166;2023-06-26T03:44:05;2.83;;;2.50;;
14100;SDS011;7127;49.372;8.166;2023-06-26T03:46:32;2.90;;;2.60;;
14100;SDS011;7127;49.372;8.166;2023-06-26T03:48:59;3.10;;;2.80;;
14100;SDS011;7127;49.372;8.166;2023-06-26T03:51:26;2.70;;;2.50;;
14100;SDS011;7127;49.372;8.166;2023-06-26T03:53:53;2.77;;;2.57;;
14100;SDS011;7127;49.372;8.166;2023-06-26T03:56:20;2.87;;;2.67;;
14100;SDS011;7127;49.372;8.166;2023-06-26T03:58:48;2.53;;;2.33;;
14100;SDS011;7127;49.372;8.166;2023-06-26T04:01:14;2.70;;;2.50;;
14100;SDS011;7127;49.372;8.166;2023-06-26T04:03:41;3.20;;;2.90;;
14100;SDS011;7127;49.372;8.166;2023-06-26T04:06:08;2.73;;;2.53;;
14100;SDS011;7127;49.372;8.166;2023-06-26T04:08:35;3.77;;;2.80;;
14100;SDS011;7127;49.372;8.166;2023-06-26T04:11:02;2.70;;;2.50;;
14100;SDS011;7127;49.372;8.166;2023-06-26T04:13:29;3.37;;;3.07;;
14100;SDS011;7127;49.372;8.166;2023-06-26T04:15:57;2.70;;;2.50;;
14100;SDS011;7127;49.372;8.166;2023-06-26T04:18:24;2.80;;;2.60;;
14100;SDS011;7127;49.372;8.166;2023-06-26T04:21:03;2.97;;;2.67;;
14100;SDS011;7127;49.372;8.166;2023-06-26T04:23:32;2.73;;;2.53;;
14100;SDS011;7127;49.372;8.166;2023-06-26T04:25:59;2.70;;;2.50;;
14100;SDS011;7127;49.372;8.166;2023-06-26T04:28:27;2.50;;;2.30;;
14100;SDS011;7127;49.372;8.166;2023-06-26T04:30:54;2.70;;;2.50;;
14100;SDS011;7127;49.372;8.166;2023-06-26T04:33:22;2.57;;;2.37;;
14100;SDS011;7127;49.372;8.166;2023-06-26T04:35:49;2.67;;;2.47;;
14100;SDS011;7127;49.372;8.166;2023-06-26T04:38:16;2.60;;;2.40;;
14100;SDS011;7127;49.372;8.166;2023-06-26T04:40:43;3.00;;;2.70;;
14100;SDS011;7127;49.372;8.166;2023-06-26T04:43:10;3.03;;;2.73;;
14100;SDS011;7127;49.372;8.166;2023-06-26T04:45:37;3.10;;;2.80;;
14100;SDS011;7127;49.372;8.166;2023-06-26T04:48:04;2.77;;;2.57;;
14100;SDS011;7127;49.372;8.166;2023-06-26T04:50:32;3.00;;;2.73;;
14100;SDS011;7127;49.372;8.166;2023-06-26T04:53:00;2.63;;;2.43;;
14100;SDS011;7127;49.372;8.166;2023-06-26T04:55:27;2.50;;;2.30;;
14100;SDS011;7127;49.372;8.166;2023-06-26T04:57:55;2.90;;;2.60;;
14100;SDS011;7127;49.372;8.166;2023-06-26T05:00:22;2.80;;;2.60;;
14100;SDS011;7127;49.372;8.166;2023-06-26T05:02:50;2.63;;;2.43;;
14100;SDS011;7127;49.372;8.166;2023-06-26T05:05:24;2.97;;;2.70;;
14100;SDS011;7127;49.372;8.166;2023-06-26T05:07:53;2.67;;;2.40;;
14100;SDS011;7127;49.372;8.166;2023-06-26T05:10:21;2.33;;;2.13;;
14100;SDS011;7127;49.372;8.166;2023-06-26T05:12:47;2.63;;;2.33;;
14100;SDS011;7127;49.372;8.166;2023-06-26T05:15:14;2.33;;;2.13;;
14100;SDS011;7127;49.372;8.166;2023-06-26T05:17:41;2.60;;;2.40;;
14100;SDS011;7127;49.372;8.166;2023-06-26T05:20:09;2.73;;;2.53;;
14100;SDS011;7127;49.372;8.166;2023-06-26T05:22:37;2.40;;;2.20;;
14100;SDS011;7127;49.372;8.166;2023-06-26T05:25:07;3.53;;;2.30;;
14100;SDS011;7127;49.372;8.166;2023-06-26T05:27:36;2.90;;;2.70;;
14100;SDS011;7127;49.372;8.166;2023-06-26T05:30:03;3.23;;;2.60;;
14100;SDS011;7127;49.372;8.166;2023-06-26T05:32:31;2.93;;;2.63;;
14100;SDS011;7127;49.372;8.166;2023-06-26T05:35:00;2.53;;;2.33;;
14100;SDS011;7127;49.372;8.166;2023-06-26T05:37:29;2.70;;;2.50;;
14100;SDS011;7127;49.372;8.166;2023-06-26T05:39:57;3.03;;;2.83;;
14100;SDS011;7127;49.372;8.166;2023-06-26T05:42:26;4.80;;;2.70;;
14100;SDS011;7127;49.372;8.166;2023-06-26T05:44:53;2.67;;;2.47;;
14100;SDS011;7127;49.372;8.166;2023-06-26T05:47:19;3.23;;;2.93;;
14100;SDS011;7127;49.372;8.166;2023-06-26T05:49:46;3.23;;;2.97;;
14100;SDS011;7127;49.372;8.166;2023-06-26T05:52:14;2.60;;;2.40;;
14100;SDS011;7127;49.372;8.166;2023-06-26T05:54:41;2.85;;;2.55;;
14100;SDS011;7127;49.372;8.166;2023-06-26T05:57:08;2.70;;;2.50;;
14100;SDS011;7127;49.372;8.166;2023-06-26T05:59:37;2.80;;;2.60;;
14100;SDS011;7127;49.372;8.166;2023-06-26T06:02:06;3.00;;;2.80;;
14100;SDS011;7127;49.372;8.166;2023-06-26T06:04:33;2.90;;;2.60;;
14100;SDS011;7127;49.372;8.166;2023-06-26T06:07:00;2.67;;;2.47;;
14100;SDS011;7127;49.372;8.166;2023-06-26T06:09:27;3.20;;;2.92;;
14100;SDS011;7127;49.372;8.166;2023-06-26T06:11:54;3.10;;;2.75;;
14100;SDS011;7127;49.372;8.166;2023-06-26T06:14:21;2.80;;;2.60;;
14100;SDS011;7127;49.372;8.166;2023-06-26T06:16:49;3.15;;;2.85;;
14100;SDS011;7127;49.372;8.166;2023-06-26T06:19:16;4.25;;;2.85;;
14100;SDS011;7127;49.372;8.166;2023-06-26T06:21:42;2.85;;;2.60;;
14100;SDS011;7127;49.372;8.166;2023-06-26T06:24:09;2.97;;;2.75;;
14100;SDS011;7127;49.372;8.166;2023-06-26T06:26:36;3.00;;;2.67;;
14100;SDS011;7127;49.372;8.166;2023-06-26T06:29:03;4.90;;;2.80;;
14100;SDS011;7127;49.372;8.166;2023-06-26T06:31:29;3.08;;;2.65;;
14100;SDS011;7127;49.372;8.166;2023-06-26T06:33:58;2.63;;;2.42;;
14100;SDS011;7127;49.372;8.166;2023-06-26T06:36:24;2.83;;;2.63;;
14100;SDS011;7127;49.372;8.166;2023-06-26T06:38:52;3.15;;;2.58;;
14100;SDS011;7127;49.372;8.166;2023-06-26T06:41:19;3.20;;;2.88;;
14100;SDS011;7127;49.372;8.166;2023-06-26T06:43:46;2.50;;;2.28;;
14100;SDS011;7127;49.372;8.166;2023-06-26T06:46:13;2.50;;;2.30;;
14100;SDS011;7127;49.372;8.166;2023-06-26T06:48:39;2.80;;;2.60;;
14100;SDS011;7127;49.372;8.166;2023-06-26T06:51:08;2.63;;;2.42;;
14100;SDS011;7127;49.372;8.166;2023-06-26T06:53:34;2.80;;;2.60;;
14100;SDS011;7127;49.372;8.166;2023-06-26T06:56:01;2.75;;;2.55;;
14100;SDS011;7127;49.372;8.166;2023-06-26T06:58:28;2.88;;;2.67;;
14100;SDS011;7127;49.372;8.166;2023-06-26T07:00:56;2.88;;;2.67;;
14100;SDS011;7127;49.372;8.166;2023-06-26T07:03:22;2.90;;;2.55;;
14100;SDS011;7127;49.372;8.166;2023-06-26T07:05:49;2.78;;;2.45;;
14100;SDS011;7127;49.372;8.166;2023-06-26T07:08:17;2.90;;;2.30;;
14100;SDS011;7127;49.372;8.166;2023-06-26T07:10:44;2.42;;;2.22;;
14100;SDS011;7127;49.372;8.166;2023-06-26T07:13:11;3.95;;;2.45;;
14100;SDS011;7127;49.372;8.166;2023-06-26T07:15:38;2.33;;;2.13;;
14100;SDS011;7127;49.372;8.166;2023-06-26T07:18:04;2.67;;;2.47;;
14100;SDS011;7127;49.372;8.166;2023-06-26T07:20:31;2.72;;;2.47;;
14100;SDS011;7127;49.372;8.166;2023-06-26T07:22:58;2.38;;;2.17;;
14100;SDS011;7127;49.372;8.166;2023-06-26T07:25:26;2.47;;;2.20;;
14100;SDS011;7127;49.372;8.166;2023-06-26T07:27:53;2.38;;;2.17;;
14100;SDS011;7127;49.372;8.166;2023-06-26T07:30:20;2.60;;;2.40;;
14100;SDS011;7127;49.372;8.166;2023-06-26T07:32:47;2.42;;;2.22;;
14100;SDS011;7127;49.372;8.166;2023-06-26T07:35:13;3.42;;;2.47;;
14100;SDS011;7127;49.372;8.166;2023-06-26T07:37:41;2.88;;;2.42;;
14100;SDS011;7127;49.372;8.166;2023-06-26T07:40:08;2.65;;;2.45;;
14100;SDS011;7127;49.372;8.166;2023-06-26T07:42:37;2.20;;;2.10;;
14100;SDS011;7127;49.372;8.166;2023-06-26T07:45:05;2.80;;;2.45;;
14100;SDS011;7127;49.372;8.166;2023-06-26T07:47:35;2.30;;;2.10;;
14100;SDS011;7127;49.372;8.166;2023-06-26T07:50:03;3.65;;;2.25;;
14100;SDS011;7127;49.372;8.166;2023-06-26T07:52:30;2.42;;;2.22;;
14100;SDS011;7127;49.372;8.166;2023-06-26T07:54:56;2.35;;;2.15;;
14100;SDS011;7127;49.372;8.166;2023-06-26T07:57:23;2.90;;;2.70;;
14100;SDS011;7127;49.372;8.166;2023-06-26T07:59:52;2.25;;;2.05;;
14100;SDS011;7127;49.372;8.166;2023-06-26T08:02:18;2.85;;;2.63;;
14100;SDS011;7127;49.372;8.166;2023-06-26T08:04:45;2.50;;;2.30;;
14100;SDS011;7127;49.372;8.166;2023-06-26T08:07:12;2.65;;;2.42;;
14100;SDS011;7127;49.372;8.166;2023-06-26T08:09:39;2.63;;;2.30;;
14100;SDS011;7127;49.372;8.166;2023-06-26T08:12:07;2.50;;;2.30;;
14100;SDS011;7127;49.372;8.166;2023-06-26T08:14:33;3.58;;;2.55;;
14100;SDS011;7127;49.372;8.166;2023-06-26T08:17:02;3.10;;;2.25;;
14100;SDS011;7127;49.372;8.166;2023-06-26T08:19:28;2.42;;;2.22;;
14100;SDS011;7127;49.372;8.166;2023-06-26T08:21:55;2.60;;;2.40;;
14100;SDS011;7127;49.372;8.166;2023-06-26T08:24:22;2.40;;;2.20;;
14100;SDS011;7127;49.372;8.166;2023-06-26T08:26:49;2.50;;;2.15;;
14100;SDS011;7127;49.372;8.166;2023-06-26T08:29:16;2.55;;;2.35;;
14100;SDS011;7127;49.372;8.166;2023-06-26T08:31:42;4.57;;;2.60;;
14100;SDS011;7127;49.372;8.166;2023-06-26T08:34:11;2.88;;;2.30;;
14100;SDS011;7127;49.372;8.166;2023-06-26T08:36:38;4.15;;;2.40;;
14100;SDS011;7127;49.372;8.166;2023-06-26T08:39:05;2.40;;;2.10;;
14100;SDS011;7127;49.372;8.166;2023-06-26T08:41:33;2.28;;;2.08;;
14100;SDS011;7127;49.372;8.166;2023-06-26T08:44:01;4.28;;;2.53;;
14100;SDS011;7127;49.372;8.166;2023-06-26T08:46:28;2.70;;;2.50;;
14100;SDS011;7127;49.372;8.166;2023-06-26T08:48:56;2.35;;;2.15;;
14100;SDS011;7127;49.372;8.166;2023-06-26T08:51:28;2.60;;;2.40;;
14100;SDS011;7127;49.372;8.166;2023-06-26T08:53:56;2.50;;;2.30;;
14100;SDS011;7127;49.372;8.166;2023-06-26T08:56:24;2.50;;;2.30;;
14100;SDS011;7127;49.372;8.166;2023-06-26T08:58:53;2.67;;;2.47;;
14100;SDS011;7127;49.372;8.166;2023-06-26T09:01:21;2.47;;;2.28;;
14100;SDS011;7127;49.372;8.166;2023-06-26T09:03:49;2.70;;;2.50;;
14100;SDS011;7127;49.372;8.166;2023-06-26T09:06:16;2.95;;;2.75;;
14100;SDS011;7127;49.372;8.166;2023-06-26T09:08:45;2.67;;;2.47;;
14100;SDS011;7127;49.372;8.166;2023-06-26T09:11:12;2.85;;;2.28;;
14100;SDS011;7127;49.372;8.166;2023-06-26T09:13:39;11.68;;;10.48;;
14100;SDS011;7127;49.372;8.166;2023-06-26T09:16:06;6.00;;;5.45;;
14100;SDS011;7127;49.372;8.166;2023-06-26T09:18:34;4.20;;;3.80;;
14100;SDS011;7127;49.372;8.166;2023-06-26T09:21:05;3.47;;;3.17;;
14100;SDS011;7127;49.372;8.166;2023-06-26T09:23:33;2.90;;;2.70;;
14100;SDS011;7127;49.372;8.166;2023-06-26T09:26:02;3.20;;;2.90;;
14100;SDS011;7127;49.372;8.166;2023-06-26T09:28:30;3.72;;;3.30;;
14100;SDS011;7127;49.372;8.166;2023-06-26T09:31:00;3.10;;;2.90;;
14100;SDS011;7127;49.372;8.166;2023-06-26T09:33:32;3.67;;;3.38;;
14100;SDS011;7127;49.372;8.166;2023-06-26T09:36:01;3.42;;;3.13;;
14100;SDS011;7127;49.372;8.166;2023-06-26T09:38:31;3.60;;;3.30;;
14100;SDS011;7127;49.372;8.166;2023-06-26T09:40:58;3.35;;;3.05;;
14100;SDS011;7127;49.372;8.166;2023-06-26T09:43:26;10.25;;;2.80;;
14100;SDS011;7127;49.372;8.166;2023-06-26T09:45:53;5.03;;;4.05;;
14100;SDS011;7127;49.372;8.166;2023-06-26T09:48:23;5.90;;;3.60;;
14100;SDS011;7127;49.372;8.166;2023-06-26T09:50:50;3.92;;;3.45;;
14100;SDS011;7127;49.372;8.166;2023-06-26T09:53:17;3.53;;;3.22;;
14100;SDS011;7127;49.372;8.166;2023-06-26T09:55:44;4.72;;;3.53;;
14100;SDS011;7127;49.372;8.166;2023-06-26T09:58:12;3.40;;;3.10;;
14100;SDS011;7127;49.372;8.166;2023-06-26T10:00:41;5.20;;;4.80;;
14100;SDS011;7127;49.372;8.166;2023-06-26T10:03:09;4.35;;;4.00;;
14100;SDS011;7127;49.372;8.166;2023-06-26T10:05:37;3.65;;;3.40;;
14100;SDS011;7127;49.372;8.166;2023-06-26T10:08:04;5.60;;;4.13;;
14100;SDS011;7127;49.372;8.166;2023-06-26T10:10:33;4.00;;;3.60;;
14100;SDS011;7127;49.372;8.166;2023-06-26T10:13:02;4.22;;;3.83;;
14100;SDS011;7127;49.372;8.166;2023-06-26T10:15:34;6.97;;;4.57;;
14100;SDS011;7127;49.372;8.166;2023-06-26T10:18:04;3.50;;;3.20;;
14100;SDS011;7127;49.372;8.166;2023-06-26T10:20:31;3.70;;;3.40;;
14100;SDS011;7127;49.372;8.166;2023-06-26T10:23:00;3.65;;;3.35;;
14100;SDS011;7127;49.372;8.166;2023-06-26T10:25:28;3.80;;;3.50;;
14100;SDS011;7127;49.372;8.166;2023-06-26T10:27:57;3.83;;;3.53;;
14100;SDS011;7127;49.372;8.166;2023-06-26T10:30:27;4.47;;;3.83;;
14100;SDS011;7127;49.372;8.166;2023-06-26T10:32:57;6.90;;;5.55;;
14100;SDS011;7127;49.372;8.166;2023-06-26T10:35:27;4.95;;;4.47;;
14100;SDS011;7127;49.372;8.166;2023-06-26T10:37:59;4.00;;;3.60;;
14100;SDS011;7127;49.372;8.166;2023-06-26T10:40:28;3.65;;;3.35;;
14100;SDS011;7127;49.372;8.166;2023-06-26T10:43:05;3.42;;;3.13;;
14100;SDS011;7127;49.372;8.166;2023-06-26T10:45:34;3.55;;;3.25;;
14100;SDS011;7127;49.372;8.166;2023-06-26T10:48:02;3.30;;;3.00;;
14100;SDS011;7127;49.372;8.166;2023-06-26T10:50:31;3.42;;;3.13;;
14100;SDS011;7127;49.372;8.166;2023-06-26T10:53:10;3.75;;;3.20;;
14100;SDS011;7127;49.372;8.166;2023-06-26T10:55:41;3.30;;;3.00;;
14100;SDS011;7127;49.372;8.166;2023-06-26T11:01:14;2.85;;;2.65;;
14100;SDS011;7127;49.372;8.166;2023-06-26T11:03:45;2.63;;;2.42;;
14100;SDS011;7127;49.372;8.166;2023-06-26T11:06:17;2.70;;;2.50;;
14100;SDS011;7127;49.372;8.166;2023-06-26T11:08:45;2.47;;;2.28;;
14100;SDS011;7127;49.372;8.166;2023-06-26T11:11:12;2.65;;;2.40;;
14100;SDS011;7127;49.372;8.166;2023-06-26T11:13:40;2.70;;;2.40;;
14100;SDS011;7127;49.372;8.166;2023-06-26T11:16:07;2.30;;;2.10;;
14100;SDS011;7127;49.372;8.166;2023-06-26T11:18:34;5.28;;;2.50;;
14100;SDS011;7127;49.372;8.166;2023-06-26T11:21:05;3.00;;;2.50;;
14100;SDS011;7127;49.372;8.166;2023-06-26T11:23:34;2.50;;;2.30;;
14100;SDS011;7127;49.372;8.166;2023-06-26T11:26:15;2.70;;;1.95;;
14100;SDS011;7127;49.372;8.166;2023-06-26T11:28:45;3.85;;;2.22;;
14100;SDS011;7127;49.372;8.166;2023-06-26T11:31:25;2.80;;;2.30;;
14100;SDS011;7127;49.372;8.166;2023-06-26T11:33:55;2.38;;;2.17;;
14100;SDS011;7127;49.372;8.166;2023-06-26T11:36:22;2.55;;;2.35;;
14100;SDS011;7127;49.372;8.166;2023-06-26T11:38:55;2.42;;;2.10;;
14100;SDS011;7127;49.372;8.166;2023-06-26T11:41:22;2.15;;;1.80;;
14100;SDS011;7127;49.372;8.166;2023-06-26T11:43:49;3.38;;;2.53;;
14100;SDS011;7127;49.372;8.166;2023-06-26T11:46:17;2.58;;;1.98;;
14100;SDS011;7127;49.372;8.166;2023-06-26T11:48:45;2.38;;;2.00;;
14100;SDS011;7127;49.372;8.166;2023-06-26T11:51:12;3.78;;;3.00;;
14100;SDS011;7127;49.372;8.166;2023-06-26T11:53:40;2.13;;;1.95;;
14100;SDS011;7127;49.372;8.166;2023-06-26T11:56:09;2.63;;;2.42;;
14100;SDS011;7127;49.372;8.166;2023-06-26T11:58:51;3.15;;;2.00;;
14100;SDS011;7127;49.372;8.166;2023-06-26T12:01:23;2.17;;;1.98;;
14100;SDS011;7127;49.372;8.166;2023-06-26T12:03:51;2.20;;;2.00;;
14100;SDS011;7127;49.372;8.166;2023-06-26T12:06:20;2.40;;;2.20;;
14100;SDS011;7127;49.372;8.166;2023-06-26T12:08:47;2.35;;;2.15;;
14100;SDS011;7127;49.372;8.166;2023-06-26T12:11:16;2.92;;;2.10;;
14100;SDS011;7127;49.372;8.166;2023-06-26T12:13:44;2.67;;;2.40;;
14100;SDS011;7127;49.372;8.166;2023-06-26T12:16:11;2.72;;;2.53;;
14100;SDS011;7127;49.372;8.166;2023-06-26T12:18:42;2.30;;;2.10;;
14100;SDS011;7127;49.372;8.166;2023-06-26T12:21:12;2.42;;;2.22;;
14100;SDS011;7127;49.372;8.166;2023-06-26T12:23:58;2.70;;;2.50;;
14100;SDS011;7127;49.372;8.166;2023-06-26T12:26:27;4.40;;;2.97;;
14100;SDS011;7127;49.372;8.166;2023-06-26T12:29:01;3.35;;;3.05;;
14100;SDS011;7127;49.372;8.166;2023-06-26T12:31:28;3.85;;;3.55;;
14100;SDS011;7127;49.372;8.166;2023-06-26T12:33:56;3.75;;;3.25;;
14100;SDS011;7127;49.372;8.166;2023-06-26T12:36:23;3.70;;;3.40;;
14100;SDS011;7127;49.372;8.166;2023-06-26T12:38:52;5.47;;;3.30;;
14100;SDS011;7127;49.372;8.166;2023-06-26T12:41:19;3.28;;;2.97;;
14100;SDS011;7127;49.372;8.166;2023-06-26T12:43:55;4.28;;;2.70;;
14100;SDS011;7127;49.372;8.166;2023-06-26T12:46:32;3.50;;;3.20;;
14100;SDS011;7127;49.372;8.166;2023-06-26T12:49:00;4.07;;;3.05;;
14100;SDS011;7127;49.372;8.166;2023-06-26T12:51:28;3.80;;;3.50;;
14100;SDS011;7127;49.372;8.166;2023-06-26T12:53:55;3.78;;;3.30;;
14100;SDS011;7127;49.372;8.166;2023-06-26T12:56:21;3.58;;;3.28;;
14100;SDS011;7127;49.372;8.166;2023-06-26T12:58:48;3.05;;;2.85;;
14100;SDS011;7127;49.372;8.166;2023-06-26T13:01:17;2.88;;;2.63;;
14100;SDS011;7127;49.372;8.166;2023-06-26T13:03:45;3.30;;;3.00;;
14100;SDS011;7127;49.372;8.166;2023-06-26T13:06:12;4.18;;;3.30;;
14100;SDS011;7127;49.372;8.166;2023-06-26T13:08:39;4.63;;;3.35;;
14100;SDS011;7127;49.372;8.166;2023-06-26T13:11:06;3.08;;;2.67;;
14100;SDS011;7127;49.372;8.166;2023-06-26T13:13:33;2.63;;;2.42;;
14100;SDS011;7127;49.372;8.166;2023-06-26T13:16:00;3.88;;;2.88;;
14100;SDS011;7127;49.372;8.166;2023-06-26T13:18:28;3.22;;;2.63;;
14100;SDS011;7127;49.372;8.166;2023-06-26T13:20:55;2.97;;;2.30;;
14100;SDS011;7127;49.372;8.166;2023-06-26T13:23:22;2.42;;;2.22;;
14100;SDS011;7127;49.372;8.166;2023-06-26T13:25:49;2.30;;;2.05;;
14100;SDS011;7127;49.372;8.166;2023-06-26T13:28:16;2.28;;;2.03;;
14100;SDS011;7127;49.372;8.166;2023-06-26T13:30:43;2.25;;;1.80;;
14100;SDS011;7127;49.372;8.166;2023-06-26T13:33:10;4.45;;;1.67;;
14100;SDS011;7127;49.372;8.166;2023-06-26T13:35:38;1.90;;;1.50;;
14100;SDS011;7127;49.372;8.166;2023-06-26T13:38:05;1.85;;;1.38;;
14100;SDS011;7127;49.372;8.166;2023-06-26T13:40:32;1.73;;;1.27;;
14100;SDS011;7127;49.372;8.166;2023-06-26T13:42:59;1.95;;;1.27;;
14100;SDS011;7127;49.372;8.166;2023-06-26T13:45:26;1.58;;;1.27;;
14100;SDS011;7127;49.372;8.166;2023-06-26T13:47:53;1.80;;;1.05;;
14100;SDS011;7127;49.372;8.166;2023-06-26T13:50:20;1.48;;;1.38;;
14100;SDS011;7127;49.372;8.166;2023-06-26T13:52:48;1.77;;;1.33;;
14100;SDS011;7127;49.372;8.166;2023-06-26T13:55:15;2.28;;;1.23;;
14100;SDS011;7127;49.372;8.166;2023-06-26T13:57:41;1.30;;;1.20;;
14100;SDS011;7127;49.372;8.166;2023-06-26T14:00:09;0.90;;;0.90;;
14100;SDS011;7127;49.372;8.166;2023-06-26T14:02:37;2.08;;;1.10;;
14100;SDS011;7127;49.372;8.166;2023-06-26T14:05:04;1.50;;;1.30;;
14100;SDS011;7127;49.372;8.166;2023-06-26T14:07:31;1.45;;;1.02;;
14100;SDS011;7127;49.372;8.166;2023-06-26T14:09:59;1.52;;;1.20;;
14100;SDS011;7127;49.372;8.166;2023-06-26T14:12:26;1.42;;;1.10;;
14100;SDS011;7127;49.372;8.166;2023-06-26T14:14:53;2.38;;;1.20;;
14100;SDS011;7127;49.372;8.166;2023-06-26T14:17:20;1.00;;;0.90;;
14100;SDS011;7127;49.372;8.166;2023-06-26T14:19:49;1.15;;;1.00;;
14100;SDS011;7127;49.372;8.166;2023-06-26T14:22:16;2.58;;;0.93;;
14100;SDS011;7127;49.372;8.166;2023-06-26T14:24:42;2.45;;;1.05;;
14100;SDS011;7127;49.372;8.166;2023-06-26T14:27:11;1.20;;;1.00;;
14100;SDS011;7127;49.372;8.166;2023-06-26T14:29:37;1.30;;;0.93;;
14100;SDS011;7127;49.372;8.166;2023-06-26T14:32:05;2.08;;;1.20;;
14100;SDS011;7127;49.372;8.166;2023-06-26T14:34:32;1.52;;;0.98;;
14100;SDS011;7127;49.372;8.166;2023-06-26T14:36:59;1.25;;;1.15;;
14100;SDS011;7127;49.372;8.166;2023-06-26T14:39:27;1.02;;;0.77;;
14100;SDS011;7127;49.372;8.166;2023-06-26T14:41:53;1.83;;;1.00;;
14100;SDS011;7127;49.372;8.166;2023-06-26T14:44:22;1.02;;;0.90;;
14100;SDS011;7127;49.372;8.166;2023-06-26T14:46:48;1.00;;;0.80;;
14100;SDS011;7127;49.372;8.166;2023-06-26T14:49:15;1.95;;;1.10;;
14100;SDS011;7127;49.372;8.166;2023-06-26T14:51:44;1.13;;;1.02;;
14100;SDS011;7127;49.372;8.166;2023-06-26T14:54:10;2.28;;;1.17;;
14100;SDS011;7127;49.372;8.166;2023-06-26T14:56:37;1.27;;;0.90;;
14100;SDS011;7127;49.372;8.166;2023-06-26T14:59:04;1.30;;;1.20;;
14100;SDS011;7127;49.372;8.166;2023-06-26T15:01:34;2.47;;;1.00;;
14100;SDS011;7127;49.372;8.166;2023-06-26T15:04:02;1.92;;;1.02;;
14100;SDS011;7127;49.372;8.166;2023-06-26T15:06:29;1.05;;;0.95;;
14100;SDS011;7127;49.372;8.166;2023-06-26T15:08:56;1.25;;;1.02;;
14100;SDS011;7127;49.372;8.166;2023-06-26T15:11:22;1.30;;;1.00;;